Check out our new BloomSky Weather System.

Active alerts


No alerts


Thunder radar  blitzortung!


Rain radar more information rain snow radar


Visit our other weather sites:

Template documentation
and downloads

And another site



Weather Underground History page Text

Daily Summary for November 27, 2017 Units:  English    Metric   Both
« Previous Day
Next Day »
Daily Weekly Monthly Yearly Custom
  High: Low: Average:
Temperature: 75.0 °F 45.9 °F 59.4 °F
Dew Point: 54.1 °F 42.8 °F 48 °F
Humidity: 92 % 36 % 70 %
Wind Speed: 6.0 mph 0.0 mph 1 mph
Wind Gust: 8.0 mph - -
Wind:- - SE
Pressure: 30.21 in 30.05 in -
Precipitation: 0.00 in    
Historical Graphs
 
 
Tabular Data for November 27, 2017
Time Temperature Dew Point Pressure Wind Wind Speed Wind Gust Humidity Rainfall Rate (Hourly)
00:00 50.2 °F 47.1 °F 30.19 in Calm     89 % 0.00 in
00:05 50.4 °F 47.5 °F 30.19 in Calm     90 % 0.00 in
00:10 50.4 °F 47.5 °F 30.19 in Calm     90 % 0.00 in
00:15 50.4 °F 47.5 °F 30.19 in Calm     90 % 0.00 in
00:20 50.4 °F 47.5 °F 30.19 in Calm     90 % 0.00 in
00:25 50.4 °F 47.5 °F 30.19 in Calm     90 % 0.00 in
00:30 50.2 °F 47.3 °F 30.19 in Calm     90 % 0.00 in
00:35 50.0 °F 47.1 °F 30.19 in Calm     90 % 0.00 in
00:40 49.8 °F 46.9 °F 30.19 in Calm     90 % 0.00 in
00:45 49.5 °F 46.4 °F 30.18 in Calm     89 % 0.00 in
00:50 48.9 °F 45.9 °F 30.18 in Calm     89 % 0.00 in
00:55 48.7 °F 46.2 °F 30.18 in Calm     91 % 0.00 in
01:00 48.9 °F 46.4 °F 30.18 in Calm     91 % 0.00 in
01:05 48.9 °F 46.4 °F 30.18 in Calm     91 % 0.00 in
01:10 48.9 °F 46.4 °F 30.18 in Calm     91 % 0.00 in
01:15 49.1 °F 46.6 °F 30.18 in Calm     91 % 0.00 in
01:20 48.9 °F 46.4 °F 30.18 in Calm     91 % 0.00 in
01:25 48.9 °F 46.4 °F 30.18 in Calm     91 % 0.00 in
01:30 48.9 °F 46.4 °F 30.19 in Calm     91 % 0.00 in
01:36 48.9 °F 46.0 °F 30.18 in Calm     90 % 0.00 in
01:40 48.7 °F 45.9 °F 30.18 in Calm     90 % 0.00 in
01:45 48.6 °F 45.7 °F 30.18 in Calm     90 % 0.00 in
01:50 48.4 °F 45.5 °F 30.18 in Calm     90 % 0.00 in
01:56 48.0 °F 45.1 °F 30.18 in Calm     90 % 0.00 in
02:01 48.0 °F 45.5 °F 30.18 in Calm     91 % 0.00 in
02:06 48.0 °F 45.5 °F 30.18 in Calm     91 % 0.00 in
02:11 47.8 °F 45.3 °F 30.18 in Calm     91 % 0.00 in
02:16 47.8 °F 45.7 °F 30.17 in Calm     92 % 0.00 in
02:21 47.7 °F 45.5 °F 30.17 in Calm     92 % 0.00 in
02:26 47.7 °F 45.5 °F 30.17 in Calm     92 % 0.00 in
02:31 47.7 °F 45.5 °F 30.17 in Calm     92 % 0.00 in
02:36 47.8 °F 45.7 °F 30.18 in Calm     92 % 0.00 in
02:41 47.8 °F 45.3 °F 30.18 in Calm     91 % 0.00 in
02:46 48.0 °F 45.5 °F 30.18 in Calm     91 % 0.00 in
02:51 47.8 °F 45.3 °F 30.17 in Calm     91 % 0.00 in
02:56 47.8 °F 45.3 °F 30.17 in Calm     91 % 0.00 in
03:01 47.8 °F 45.3 °F 30.17 in Calm     91 % 0.00 in
03:06 47.8 °F 45.0 °F 30.17 in Calm     90 % 0.00 in
03:11 47.8 °F 45.0 °F 30.17 in Calm     90 % 0.00 in
03:16 47.8 °F 45.0 °F 30.17 in Calm     90 % 0.00 in
03:21 47.7 °F 44.6 °F 30.17 in Calm     89 % 0.00 in
03:26 47.5 °F 44.8 °F 30.17 in Calm     90 % 0.00 in
03:31 47.7 °F 45.0 °F 30.17 in Calm     90 % 0.00 in
03:36 47.5 °F 44.8 °F 30.17 in Calm     90 % 0.00 in
03:41 47.7 °F 44.6 °F 30.17 in Calm     89 % 0.00 in
03:46 47.7 °F 44.6 °F 30.17 in Calm     89 % 0.00 in
03:51 47.5 °F 44.4 °F 30.17 in Calm     89 % 0.00 in
03:56 47.5 °F 44.4 °F 30.17 in Calm     89 % 0.00 in
04:01 47.1 °F 44.1 °F 30.17 in Calm     89 % 0.00 in
04:06 47.1 °F 44.1 °F 30.17 in Calm     89 % 0.00 in
04:11 47.1 °F 44.1 °F 30.17 in Calm   1.0 mph 89 % 0.00 in
04:16 47.1 °F 44.1 °F 30.17 in Calm   1.0 mph 89 % 0.00 in
04:21 47.3 °F 44.2 °F 30.16 in Calm   1.0 mph 89 % 0.00 in
04:26 47.5 °F 44.4 °F 30.17 in Calm   1.0 mph 89 % 0.00 in
04:31 47.5 °F 44.1 °F 30.16 in Calm   1.0 mph 88 % 0.00 in
04:36 47.7 °F 44.2 °F 30.16 in Calm   1.0 mph 88 % 0.00 in
04:41 47.7 °F 44.1 °F 30.17 in Calm     87 % 0.00 in
04:46 47.8 °F 44.2 °F 30.16 in Calm     87 % 0.00 in
04:51 47.8 °F 43.9 °F 30.16 in Calm   1.0 mph 86 % 0.00 in
04:56 47.7 °F 43.7 °F 30.16 in Calm   1.0 mph 86 % 0.00 in
05:01 47.5 °F 43.5 °F 30.16 in Calm   1.0 mph 86 % 0.00 in
05:06 47.1 °F 43.5 °F 30.16 in Calm     87 % 0.00 in
05:12 47.1 °F 43.5 °F 30.16 in Calm     87 % 0.00 in
05:17 47.1 °F 43.5 °F 30.16 in Calm     87 % 0.00 in
05:22 47.1 °F 43.7 °F 30.16 in Calm   1.0 mph 88 % 0.00 in
05:27 46.9 °F 43.5 °F 30.17 in Calm   1.0 mph 88 % 0.00 in
05:32 46.9 °F 43.5 °F 30.17 in Calm   1.0 mph 88 % 0.00 in
05:37 46.8 °F 43.3 °F 30.17 in Calm   1.0 mph 88 % 0.00 in
05:42 46.6 °F 43.2 °F 30.17 in Calm   1.0 mph 88 % 0.00 in
05:47 46.6 °F 43.2 °F 30.17 in Calm   1.0 mph 88 % 0.00 in
05:51 46.4 °F 43.0 °F 30.17 in Calm   1.0 mph 88 % 0.00 in
05:57 46.2 °F 43.2 °F 30.17 in Calm   1.0 mph 89 % 0.00 in
06:02 46.0 °F 43.0 °F 30.17 in Calm   1.0 mph 89 % 0.00 in
06:07 45.9 °F 42.8 °F 30.17 in Calm   1.0 mph 89 % 0.00 in
06:12 45.9 °F 43.2 °F 30.17 in Calm   1.0 mph 90 % 0.00 in
06:17 45.9 °F 43.2 °F 30.17 in Calm   1.0 mph 90 % 0.00 in
06:22 46.0 °F 43.0 °F 30.17 in Calm   1.0 mph 89 % 0.00 in
06:27 46.0 °F 43.0 °F 30.17 in Calm   1.0 mph 89 % 0.00 in
06:32 46.2 °F 43.2 °F 30.17 in Calm   1.0 mph 89 % 0.00 in
06:37 46.2 °F 43.2 °F 30.17 in Calm   1.0 mph 89 % 0.00 in
06:42 46.0 °F 43.0 °F 30.17 in Calm   1.0 mph 89 % 0.00 in
06:47 46.2 °F 43.2 °F 30.17 in North 1.0 mph 1.0 mph 89 % 0.00 in
06:52 46.2 °F 42.8 °F 30.17 in Calm   1.0 mph 88 % 0.00 in
06:57 46.2 °F 42.8 °F 30.17 in Calm   1.0 mph 88 % 0.00 in
07:02 46.4 °F 43.0 °F 30.17 in Calm   1.0 mph 88 % 0.00 in
07:07 46.2 °F 42.8 °F 30.17 in Calm   1.0 mph 88 % 0.00 in
07:12 46.4 °F 43.0 °F 30.18 in Calm   1.0 mph 88 % 0.00 in
07:17 46.8 °F 43.2 °F 30.18 in Calm   1.0 mph 87 % 0.00 in
07:22 46.9 °F 43.3 °F 30.18 in Calm   1.0 mph 87 % 0.00 in
07:27 47.1 °F 43.5 °F 30.18 in Calm   1.0 mph 87 % 0.00 in
07:32 47.7 °F 43.7 °F 30.19 in Calm   1.0 mph 86 % 0.00 in
07:37 48.0 °F 44.1 °F 30.19 in Calm   1.0 mph 86 % 0.00 in
07:42 48.4 °F 44.4 °F 30.19 in Calm   1.0 mph 86 % 0.00 in
07:47 49.3 °F 45.3 °F 30.19 in Calm   1.0 mph 86 % 0.00 in
07:52 49.6 °F 45.0 °F 30.19 in Calm   1.0 mph 84 % 0.00 in
07:53 49.6 °F 45.0 °F 30.19 in Calm   1.0 mph 84 % 0.00 in
07:58 50.2 °F 45.1 °F 30.19 in Calm   1.0 mph 83 % 0.00 in
08:03 50.5 °F 45.3 °F 30.19 in Calm   1.0 mph 82 % 0.00 in
08:08 50.9 °F 45.3 °F 30.19 in Calm   1.0 mph 81 % 0.00 in
08:13 51.6 °F 45.3 °F 30.19 in Calm   1.0 mph 79 % 0.00 in
08:18 52.2 °F 45.5 °F 30.19 in Calm   2.0 mph 78 % 0.00 in
08:23 52.5 °F 45.5 °F 30.20 in Calm   2.0 mph 77 % 0.00 in
08:28 53.2 °F 45.9 °F 30.20 in Calm   2.0 mph 76 % 0.00 in
08:33 53.8 °F 45.3 °F 30.20 in Calm   1.0 mph 73 % 0.00 in
08:38 54.5 °F 46.4 °F 30.20 in Calm   1.0 mph 74 % 0.00 in
08:51 56.8 °F 46.8 °F 30.20 in Calm   3.0 mph 69 % 0.00 in
08:58 57.9 °F 46.2 °F 30.20 in Calm   3.0 mph 65 % 0.00 in
09:03 58.3 °F 46.6 °F 30.20 in Calm   2.0 mph 65 % 0.00 in
09:47 63.0 °F 46.6 °F 30.21 in SSE 1.0 mph 3.0 mph 55 % 0.00 in
09:58 63.3 °F 46.4 °F 30.21 in Calm   3.0 mph 54 % 0.00 in
10:03 64.9 °F 45.9 °F 30.21 in SE 2.0 mph 3.0 mph 50 % 0.00 in
10:08 65.1 °F 47.1 °F 30.21 in Calm   3.0 mph 52 % 0.00 in
10:13 65.7 °F 46.6 °F 30.21 in East 1.0 mph 3.0 mph 50 % 0.00 in
10:18 65.8 °F 46.2 °F 30.21 in East 2.0 mph 3.0 mph 49 % 0.00 in
10:23 66.0 °F 45.7 °F 30.21 in Calm   3.0 mph 48 % 0.00 in
10:28 66.0 °F 45.7 °F 30.21 in SE 3.0 mph 6.0 mph 48 % 0.00 in
10:33 66.2 °F 45.9 °F 30.20 in SE 1.0 mph 6.0 mph 48 % 0.00 in
10:38 66.7 °F 45.3 °F 30.20 in SSE 3.0 mph 6.0 mph 46 % 0.00 in
10:43 67.3 °F 45.9 °F 30.20 in Calm   5.0 mph 46 % 0.00 in
10:48 67.6 °F 45.5 °F 30.20 in SE 2.0 mph 4.0 mph 45 % 0.00 in
10:53 68.0 °F 45.3 °F 30.20 in SSW 1.0 mph 5.0 mph 44 % 0.00 in
10:58 68.5 °F 45.7 °F 30.19 in East 2.0 mph 5.0 mph 44 % 0.00 in
11:03 68.5 °F 45.1 °F 30.19 in ENE 2.0 mph 5.0 mph 43 % 0.00 in
11:08 68.5 °F 45.7 °F 30.19 in Calm   6.0 mph 44 % 0.00 in
11:13 69.1 °F 46.8 °F 30.19 in ENE 2.0 mph 6.0 mph 45 % 0.00 in
11:18 69.4 °F 46.0 °F 30.18 in SE 5.0 mph 6.0 mph 43 % 0.00 in
11:23 69.4 °F 46.0 °F 30.18 in WSW 3.0 mph 6.0 mph 43 % 0.00 in
11:28 70.0 °F 46.4 °F 30.17 in South 2.0 mph 6.0 mph 43 % 0.00 in
11:33 70.0 °F 45.9 °F 30.17 in SSE 2.0 mph 6.0 mph 42 % 0.00 in
11:38 70.0 °F 46.4 °F 30.17 in SSW 3.0 mph 6.0 mph 43 % 0.00 in
11:43 70.3 °F 46.8 °F 30.17 in South 1.0 mph 6.0 mph 43 % 0.00 in
11:48 70.9 °F 48.6 °F 30.16 in South 2.0 mph 6.0 mph 45 % 0.00 in
11:53 71.4 °F 45.9 °F 30.16 in SE 1.0 mph 5.0 mph 40 % 0.00 in
11:58 70.9 °F 46.0 °F 30.16 in SSE 3.0 mph 5.0 mph 41 % 0.00 in
12:03 70.9 °F 46.6 °F 30.15 in Calm   6.0 mph 42 % 0.00 in
12:08 71.1 °F 46.8 °F 30.15 in SE 3.0 mph 6.0 mph 42 % 0.00 in
12:13 71.4 °F 47.1 °F 30.15 in South 2.0 mph 6.0 mph 42 % 0.00 in
12:18 71.6 °F 46.0 °F 30.14 in ESE 4.0 mph 6.0 mph 40 % 0.00 in
12:23 71.4 °F 45.9 °F 30.14 in ESE 1.0 mph 6.0 mph 40 % 0.00 in
12:28 71.6 °F 46.6 °F 30.14 in SW 2.0 mph 6.0 mph 41 % 0.00 in
12:33 71.8 °F 46.2 °F 30.13 in ESE 1.0 mph 6.0 mph 40 % 0.00 in
12:38 72.0 °F 46.4 °F 30.13 in SW 1.0 mph 4.0 mph 40 % 0.00 in
12:43 72.5 °F 47.5 °F 30.13 in ESE 3.0 mph 5.0 mph 41 % 0.00 in
12:48 72.7 °F 46.9 °F 30.12 in Calm   5.0 mph 40 % 0.00 in
12:53 72.9 °F 47.1 °F 30.12 in SE 3.0 mph 5.0 mph 40 % 0.00 in
12:59 73.2 °F 46.0 °F 30.12 in ENE 1.0 mph 5.0 mph 38 % 0.00 in
13:03 73.6 °F 48.4 °F 30.12 in ENE 2.0 mph 5.0 mph 41 % 0.00 in
13:09 73.4 °F 47.7 °F 30.12 in NW 1.0 mph 5.0 mph 40 % 0.00 in
13:14 73.0 °F 48.0 °F 30.11 in SSW 2.0 mph 5.0 mph 41 % 0.00 in
13:19 73.2 °F 46.8 °F 30.11 in East 1.0 mph 5.0 mph 39 % 0.00 in
13:24 73.2 °F 46.0 °F 30.11 in SSE 4.0 mph 5.0 mph 38 % 0.00 in
13:29 73.6 °F 47.1 °F 30.10 in SSW 4.0 mph 7.0 mph 39 % 0.00 in
13:34 73.8 °F 47.3 °F 30.10 in Calm   7.0 mph 39 % 0.00 in
13:39 73.9 °F 45.3 °F 30.10 in ESE 5.0 mph 7.0 mph 36 % 0.00 in
13:44 73.6 °F 46.4 °F 30.10 in ESE 1.0 mph 7.0 mph 38 % 0.00 in
13:49 73.6 °F 45.7 °F 30.09 in East 3.0 mph 7.0 mph 37 % 0.00 in
13:54 73.8 °F 47.3 °F 30.09 in South 1.0 mph 7.0 mph 39 % 0.00 in
13:59 74.1 °F 46.9 °F 30.09 in SE 2.0 mph 6.0 mph 38 % 0.00 in
14:04 74.1 °F 46.2 °F 30.09 in SSE 4.0 mph 6.0 mph 37 % 0.00 in
14:09 73.9 °F 47.5 °F 30.09 in SSE 5.0 mph 6.0 mph 39 % 0.00 in
14:14 73.9 °F 46.8 °F 30.08 in East 2.0 mph 7.0 mph 38 % 0.00 in
14:19 74.1 °F 46.9 °F 30.08 in SSE 1.0 mph 7.0 mph 38 % 0.00 in
14:20 74.1 °F 47.7 °F 30.08 in SSE 3.0 mph 7.0 mph 39 % 0.00 in
14:25 74.5 °F 47.8 °F 30.08 in SSW 1.0 mph 6.0 mph 39 % 0.00 in
14:30 74.7 °F 47.3 °F 30.08 in ENE 1.0 mph 6.0 mph 38 % 0.00 in
14:35 74.7 °F 47.3 °F 30.07 in Calm   5.0 mph 38 % 0.00 in
14:40 74.8 °F 48.9 °F 30.07 in Calm   5.0 mph 40 % 0.00 in
14:45 74.8 °F 48.2 °F 30.07 in Calm   5.0 mph 39 % 0.00 in
14:50 75.0 °F 47.7 °F 30.06 in SSW 3.0 mph 5.0 mph 38 % 0.00 in
14:55 74.7 °F 47.3 °F 30.07 in ESE 2.0 mph 5.0 mph 38 % 0.00 in
15:00 74.5 °F 47.8 °F 30.06 in ESE 2.0 mph 6.0 mph 39 % 0.00 in
15:05 74.5 °F 48.6 °F 30.06 in South 2.0 mph 6.0 mph 40 % 0.00 in
15:10 74.7 °F 48.7 °F 30.06 in Calm   6.0 mph 40 % 0.00 in
15:15 75.0 °F 48.4 °F 30.06 in Calm   6.0 mph 39 % 0.00 in
15:20 75.0 °F 49.1 °F 30.06 in SSE 2.0 mph 6.0 mph 40 % 0.00 in
15:25 75.0 °F 49.6 °F 30.06 in SE 2.0 mph 6.0 mph 41 % 0.00 in
15:30 74.7 °F 49.5 °F 30.06 in NE 2.0 mph 6.0 mph 41 % 0.00 in
15:35 74.7 °F 50.0 °F 30.06 in East 1.0 mph 6.0 mph 42 % 0.00 in
15:40 74.3 °F 49.6 °F 30.06 in East 6.0 mph 8.0 mph 42 % 0.00 in
15:45 73.9 °F 50.0 °F 30.06 in South 4.0 mph 8.0 mph 43 % 0.00 in
15:50 73.9 °F 50.0 °F 30.06 in Calm   8.0 mph 43 % 0.00 in
15:55 73.8 °F 50.5 °F 30.06 in SSE 3.0 mph 8.0 mph 44 % 0.00 in
16:00 73.8 °F 50.5 °F 30.06 in SSE 2.0 mph 7.0 mph 44 % 0.00 in
16:05 73.6 °F 49.6 °F 30.06 in SE 2.0 mph 7.0 mph 43 % 0.00 in
16:10 73.2 °F 48.7 °F 30.06 in SE 3.0 mph 8.0 mph 42 % 0.00 in
16:15 72.9 °F 49.1 °F 30.06 in ESE 3.0 mph 8.0 mph 43 % 0.00 in
16:21 72.5 °F 48.0 °F 30.06 in SE 3.0 mph 8.0 mph 42 % 0.00 in
16:26 72.3 °F 48.6 °F 30.06 in SSE 4.0 mph 7.0 mph 43 % 0.00 in
16:31 72.0 °F 48.2 °F 30.06 in SE 4.0 mph 6.0 mph 43 % 0.00 in
16:36 71.8 °F 48.0 °F 30.06 in ESE 4.0 mph 7.0 mph 43 % 0.00 in
16:41 71.4 °F 47.8 °F 30.06 in SE 3.0 mph 7.0 mph 43 % 0.00 in
16:46 71.1 °F 47.5 °F 30.06 in SE 2.0 mph 7.0 mph 43 % 0.00 in
16:51 70.9 °F 47.3 °F 30.06 in SE 3.0 mph 7.0 mph 43 % 0.00 in
16:56 70.5 °F 47.5 °F 30.06 in East 2.0 mph 7.0 mph 44 % 0.00 in
17:01 70.3 °F 48.0 °F 30.06 in SE 3.0 mph 7.0 mph 45 % 0.00 in
17:06 70.0 °F 48.2 °F 30.05 in SE 4.0 mph 6.0 mph 46 % 0.00 in
17:11 69.4 °F 48.4 °F 30.05 in South 2.0 mph 6.0 mph 47 % 0.00 in
17:16 69.1 °F 49.1 °F 30.05 in SSE 1.0 mph 5.0 mph 49 % 0.00 in
17:21 68.7 °F 49.3 °F 30.05 in SE 2.0 mph 5.0 mph 50 % 0.00 in
17:26 68.5 °F 49.6 °F 30.05 in ENE 1.0 mph 5.0 mph 51 % 0.00 in
17:31 68.2 °F 50.9 °F 30.05 in ESE 5.0 mph 5.0 mph 54 % 0.00 in
17:36 67.8 °F 51.6 °F 30.06 in SE 2.0 mph 6.0 mph 56 % 0.00 in
17:37 67.8 °F 51.6 °F 30.06 in South 2.0 mph 6.0 mph 56 % 0.00 in
17:42 67.5 °F 51.6 °F 30.06 in SE 2.0 mph 6.0 mph 57 % 0.00 in
17:47 67.3 °F 52.5 °F 30.06 in SSE 1.0 mph 6.0 mph 59 % 0.00 in
17:52 66.9 °F 52.5 °F 30.06 in SE 2.0 mph 4.0 mph 60 % 0.00 in
17:57 66.6 °F 52.7 °F 30.06 in SE 1.0 mph 4.0 mph 61 % 0.00 in
18:02 66.4 °F 52.9 °F 30.06 in South 1.0 mph 5.0 mph 62 % 0.00 in
18:07 66.0 °F 53.1 °F 30.06 in SE 3.0 mph 6.0 mph 63 % 0.00 in
18:12 65.7 °F 52.7 °F 30.06 in SE 3.0 mph 6.0 mph 63 % 0.00 in
18:17 65.5 °F 53.1 °F 30.06 in East 4.0 mph 6.0 mph 64 % 0.00 in
18:22 65.1 °F 53.1 °F 30.06 in SSE 1.0 mph 5.0 mph 65 % 0.00 in
18:27 64.9 °F 52.9 °F 30.06 in SSE 1.0 mph 5.0 mph 65 % 0.00 in
18:32 64.8 °F 53.1 °F 30.07 in SE 3.0 mph 6.0 mph 66 % 0.00 in
18:37 64.6 °F 53.4 °F 30.07 in SE 2.0 mph 6.0 mph 67 % 0.00 in
18:42 64.2 °F 53.1 °F 30.07 in SSE 1.0 mph 6.0 mph 67 % 0.00 in
18:47 64.0 °F 53.2 °F 30.07 in East 3.0 mph 4.0 mph 68 % 0.00 in
18:52 63.9 °F 53.1 °F 30.07 in SSE 1.0 mph 4.0 mph 68 % 0.00 in
18:57 63.7 °F 52.9 °F 30.07 in Calm   5.0 mph 68 % 0.00 in
19:02 63.3 °F 53.1 °F 30.08 in Calm   5.0 mph 69 % 0.00 in
19:07 63.1 °F 52.9 °F 30.08 in SE 2.0 mph 5.0 mph 69 % 0.00 in
19:12 63.0 °F 53.1 °F 30.08 in SE 1.0 mph 4.0 mph 70 % 0.00 in
19:17 62.8 °F 53.2 °F 30.08 in SE 2.0 mph 5.0 mph 71 % 0.00 in
19:22 62.6 °F 53.1 °F 30.08 in SE 1.0 mph 5.0 mph 71 % 0.00 in
19:27 62.4 °F 53.2 °F 30.08 in SSE 2.0 mph 5.0 mph 72 % 0.00 in
19:32 62.2 °F 53.1 °F 30.08 in East 3.0 mph 6.0 mph 72 % 0.00 in
19:37 62.2 °F 53.4 °F 30.09 in SE 2.0 mph 6.0 mph 73 % 0.00 in
19:42 62.1 °F 53.6 °F 30.09 in South 1.0 mph 6.0 mph 74 % 0.00 in
19:47 61.9 °F 53.4 °F 30.09 in SE 3.0 mph 5.0 mph 74 % 0.00 in
19:52 61.7 °F 53.8 °F 30.09 in SSE 2.0 mph 5.0 mph 75 % 0.00 in
19:57 61.5 °F 53.6 °F 30.09 in Calm   5.0 mph 75 % 0.00 in
20:02 61.3 °F 53.8 °F 30.09 in SE 1.0 mph 5.0 mph 76 % 0.00 in
20:07 61.2 °F 53.6 °F 30.09 in South 2.0 mph 5.0 mph 76 % 0.00 in
20:12 61.0 °F 53.8 °F 30.09 in ESE 1.0 mph 6.0 mph 77 % 0.00 in
20:17 61.0 °F 54.1 °F 30.09 in East 1.0 mph 6.0 mph 78 % 0.00 in
20:22 60.6 °F 53.8 °F 30.09 in SSE 3.0 mph 6.0 mph 78 % 0.00 in
20:27 60.4 °F 54.0 °F 30.09 in ESE 2.0 mph 4.0 mph 79 % 0.00 in
20:32 60.3 °F 53.8 °F 30.09 in Calm   4.0 mph 79 % 0.00 in
20:37 60.1 °F 53.6 °F 30.09 in Calm   3.0 mph 79 % 0.00 in
20:42 59.7 °F 53.6 °F 30.08 in Calm   3.0 mph 80 % 0.00 in
20:47 59.5 °F 53.4 °F 30.09 in Calm   3.0 mph 80 % 0.00 in
20:52 59.4 °F 53.6 °F 30.09 in SSE 1.0 mph 3.0 mph 81 % 0.00 in
20:57 59.2 °F 53.4 °F 30.09 in SE 2.0 mph 5.0 mph 81 % 0.00 in
21:02 59.2 °F 53.6 °F 30.08 in SE 2.0 mph 5.0 mph 82 % 0.00 in
21:07 58.8 °F 53.4 °F 30.09 in SE 1.0 mph 5.0 mph 82 % 0.00 in
21:12 58.8 °F 53.6 °F 30.08 in SE 1.0 mph 3.0 mph 83 % 0.00 in
21:17 58.8 °F 54.0 °F 30.08 in Calm   4.0 mph 84 % 0.00 in
21:22 58.8 °F 54.0 °F 30.08 in ESE 2.0 mph 5.0 mph 84 % 0.00 in
21:28 58.6 °F 53.8 °F 30.08 in East 2.0 mph 5.0 mph 84 % 0.00 in
21:33 58.6 °F 54.1 °F 30.08 in Calm   5.0 mph 85 % 0.00 in
21:38 58.5 °F 54.0 °F 30.09 in Calm   4.0 mph 85 % 0.00 in
21:43 58.5 °F 54.0 °F 30.08 in Calm   4.0 mph 85 % 0.00 in
21:48 58.5 °F 54.0 °F 30.08 in ESE 2.0 mph 4.0 mph 85 % 0.00 in
21:53 58.3 °F 53.8 °F 30.08 in South 2.0 mph 4.0 mph 85 % 0.00 in
21:58 58.3 °F 53.8 °F 30.08 in ESE 2.0 mph 4.0 mph 85 % 0.00 in
22:03 58.1 °F 53.6 °F 30.08 in SE 2.0 mph 3.0 mph 85 % 0.00 in
22:08 57.9 °F 53.4 °F 30.08 in SSE 1.0 mph 3.0 mph 85 % 0.00 in
22:13 57.9 °F 53.4 °F 30.08 in Calm   3.0 mph 85 % 0.00 in
22:18 57.7 °F 53.6 °F 30.08 in Calm   3.0 mph 86 % 0.00 in
22:23 57.7 °F 53.2 °F 30.08 in Calm   3.0 mph 85 % 0.00 in
22:28 57.6 °F 53.1 °F 30.08 in SE 2.0 mph 2.0 mph 85 % 0.00 in
22:33 57.4 °F 53.2 °F 30.08 in Calm   3.0 mph 86 % 0.00 in
22:38 57.2 °F 53.1 °F 30.08 in SE 1.0 mph 3.0 mph 86 % 0.00 in
22:43 56.8 °F 52.7 °F 30.08 in Calm   3.0 mph 86 % 0.00 in
22:48 56.7 °F 52.5 °F 30.08 in Calm   2.0 mph 86 % 0.00 in
22:54 56.5 °F 52.7 °F 30.08 in Calm   1.0 mph 87 % 0.00 in
22:59 56.3 °F 52.5 °F 30.08 in Calm   1.0 mph 87 % 0.00 in
23:04 56.1 °F 52.3 °F 30.08 in Calm   1.0 mph 87 % 0.00 in
23:09 55.9 °F 52.5 °F 30.08 in SE 1.0 mph 1.0 mph 88 % 0.00 in
23:14 55.9 °F 52.5 °F 30.08 in Calm   3.0 mph 88 % 0.00 in
23:19 55.8 °F 52.3 °F 30.08 in Calm   3.0 mph 88 % 0.00 in
23:24 55.6 °F 52.2 °F 30.08 in Calm   3.0 mph 88 % 0.00 in
23:29 55.2 °F 51.8 °F 30.08 in Calm   1.0 mph 88 % 0.00 in
23:34 54.9 °F 51.4 °F 30.08 in Calm   1.0 mph 88 % 0.00 in
23:39 54.7 °F 51.4 °F 30.08 in Calm   1.0 mph 89 % 0.00 in
23:44 54.5 °F 51.3 °F 30.08 in Calm   1.0 mph 89 % 0.00 in
23:49 54.1 °F 50.9 °F 30.08 in Calm   1.0 mph 89 % 0.00 in
23:54 54.0 °F 50.7 °F 30.08 in Calm   1.0 mph 89 % 0.00 in
23:59 53.4 °F 50.5 °F 30.08 in Calm   1.0 mph 90 % 0.00 in
Spring, Texas: Villages of Bridgestone
Compliments of Weather Underground - 2.75 mb

Script developed by  Jim McMurry - jmcmurry@mwt.net Adapted for the template by  Wim van der Kuil - Leuven-Template.eu

You find our weather info also at:

UK Metoffice

WeatherCloud

Weather Underground

Mid-South Weather Network

AWEKAS

Citizen Weather Observer Program (CWOP)

HAMweather, WeatherForYou, PWS Weather

Equipment we use:

Weather-station
Davis Vantage Vue

Weather-program
Meteohub

Weather-server
Debian 7.9 x86 (Guest)

Provider
DreamHost

Davis Vantage Vue

Meteohub

Debian 7.9 x86 (Guest)

DreamHost